Time;durP1;ratioP1;P1;durP2;ratioP2;P2;SDS_P1;SDS_P2;PMS_P1;PMS_P2;Temp;Humidity;BMP_temperature;BMP_pressure;BME280_temperature;BME280_humidity;BME280_pressure;Samples;Min_cycle;Max_cycle;Signal;HPM_P1;HPM_P2
2022/06/05 00:00:21;;;;;;;4.07;3.70;;;24.80;52.30;26.60;100918.00;;;;4986504;28;20649;-49
2022/06/05 00:03:13;;;;;;;4.75;4.13;;;24.80;52.30;26.60;100913.00;;;;4986255;28;20192;-48
2022/06/05 00:05:47;;;;;;;4.45;4.15;;;24.70;52.30;26.50;100918.00;;;;4986980;28;20168;-48
2022/06/05 00:08:18;;;;;;;4.10;3.80;;;24.70;52.40;26.50;100912.00;;;;4986172;28;20244;-47
2022/06/05 00:10:56;;;;;;;4.07;3.83;;;24.70;52.40;26.50;100913.00;;;;4985256;28;20219;-47
2022/06/05 00:13:49;;;;;;;4.22;3.83;;;24.70;52.40;26.50;100913.00;;;;4986322;28;20226;-48
2022/06/05 00:16:16;;;;;;;4.38;3.97;;;24.60;52.50;26.40;100925.00;;;;4986506;28;20164;-48
2022/06/05 00:18:42;;;;;;;4.28;3.95;;;24.60;52.50;26.40;100926.00;;;;4986287;28;20176;-48
2022/06/05 00:21:09;;;;;;;4.30;4.00;;;24.60;52.50;26.40;100915.00;;;;4986394;28;20199;-47
2022/06/05 00:23:35;;;;;;;4.18;3.90;;;24.70;52.40;26.40;100919.00;;;;4986591;28;20305;-47
2022/06/05 00:26:19;;;;;;;4.18;3.83;;;24.70;52.50;26.40;100916.00;;;;4985537;28;20239;-46
2022/06/05 00:28:55;;;;;;;4.10;3.80;;;24.60;52.50;26.30;100918.00;;;;5007570;28;20164;-47
2022/06/05 00:31:49;;;;;;;4.55;4.10;;;24.50;52.20;26.30;100910.00;;;;5007292;28;20187;-47
2022/06/05 00:34:15;;;;;;;4.15;3.85;;;24.50;52.50;26.20;100910.00;;;;4993693;28;20603;-47
2022/06/05 00:36:57;;;;;;;4.30;3.90;;;24.50;52.50;26.20;100903.00;;;;4989046;28;20238;-47
2022/06/05 00:40:24;;;;;;;4.30;3.88;;;24.50;52.60;26.20;100907.00;;;;4989147;28;20172;-48
2022/06/05 00:42:50;;;;;;;4.07;3.78;;;24.40;52.50;26.20;100896.00;;;;4972112;28;20235;-48
2022/06/05 00:45:15;;;;;;;4.20;3.80;;;24.50;52.50;26.20;100899.00;;;;4990218;28;20744;-48
2022/06/05 00:47:41;;;;;;;4.03;3.72;;;24.50;52.50;26.20;100895.00;;;;4988092;28;20176;-48
2022/06/05 00:50:18;;;;;;;4.30;3.90;;;24.40;52.40;26.20;100888.00;;;;4972553;28;20172;-48
2022/06/05 00:52:50;;;;;;;4.30;4.00;;;24.40;52.50;26.10;100888.00;;;;4988840;28;20196;-48
2022/06/05 00:55:16;;;;;;;4.43;4.03;;;24.40;52.50;26.10;100881.00;;;;4989797;28;20247;-49
2022/06/05 00:57:42;;;;;;;4.10;3.80;;;24.40;52.40;26.10;100863.00;;;;4989722;28;20187;-47
2022/06/05 01:00:20;;;;;;;4.20;3.80;;;24.40;52.40;26.10;100873.00;;;;4988746;28;20629;-48
2022/06/05 01:02:48;;;;;;;4.10;3.78;;;24.40;52.30;26.10;100877.00;;;;4989783;28;20195;-47
2022/06/05 01:05:14;;;;;;;4.10;3.80;;;24.30;52.40;26.10;100867.00;;;;4989544;28;20659;-47
2022/06/05 01:07:40;;;;;;;3.95;3.65;;;24.30;52.40;26.00;100857.00;;;;4989938;28;20183;-49
2022/06/05 01:10:07;;;;;;;3.90;3.60;;;24.30;52.50;26.00;100861.00;;;;4990163;28;20173;-48
2022/06/05 01:13:27;;;;;;;4.00;3.70;;;24.30;52.40;26.00;100865.00;;;;4972057;28;20200;-47
2022/06/05 01:16:29;;;;;;;3.87;3.57;;;24.20;52.50;25.90;100855.00;;;;4989083;28;20184;-47
2022/06/05 01:19:17;;;;;;;4.22;3.83;;;24.20;52.50;25.90;100862.00;;;;4989167;28;20795;-47
2022/06/05 01:21:51;;;;;;;4.10;3.80;;;24.20;52.50;25.90;100864.00;;;;4989047;28;20200;-48
2022/06/05 01:24:52;;;;;;;3.93;3.73;;;24.20;52.50;25.90;100844.00;;;;4989530;28;20212;-47
2022/06/05 01:27:21;;;;;;;4.00;3.70;;;24.20;52.60;25.80;100857.00;;;;4988140;28;20689;-49
2022/06/05 01:30:14;;;;;;;3.77;3.47;;;24.20;52.60;25.80;100854.00;;;;4987990;28;20160;-48
2022/06/05 01:33:00;;;;;;;5.17;3.60;;;24.20;52.40;25.80;100846.00;;;;4988128;28;20191;-49
2022/06/05 01:35:37;;;;;;;4.30;3.90;;;24.20;52.40;25.80;100844.00;;;;4988294;28;20226;-47
2022/06/05 01:38:07;;;;;;;4.40;4.00;;;24.20;52.50;25.80;100844.00;;;;4987639;28;20247;-47
2022/06/05 01:40:40;;;;;;;4.82;3.70;;;24.10;52.40;25.80;100832.00;;;;4987785;28;20157;-47
2022/06/05 01:43:15;;;;;;;3.75;3.42;;;24.10;52.50;25.80;100815.00;;;;4987741;28;20192;-47
2022/06/05 01:45:47;;;;;;;3.57;3.37;;;24.20;52.40;25.80;100832.00;;;;4987940;28;20837;-48
2022/06/05 01:48:33;;;;;;;3.77;3.47;;;24.20;52.50;25.70;100821.00;;;;4987153;28;20176;-49
2022/06/05 01:51:03;;;;;;;4.10;3.80;;;24.10;52.40;25.70;100814.00;;;;4971892;28;20287;-48
2022/06/05 01:53:35;;;;;;;3.60;3.40;;;24.10;52.50;25.70;100810.00;;;;4993066;28;20195;-47
2022/06/05 01:56:21;;;;;;;3.97;3.60;;;24.10;52.50;25.70;100805.00;;;;4988023;28;20259;-48
2022/06/05 01:59:01;;;;;;;4.50;3.80;;;24.10;52.60;25.70;100802.00;;;;4988920;28;20199;-47
2022/06/05 02:01:53;;;;;;;3.87;3.57;;;24.00;52.60;25.60;100792.00;;;;4987849;28;20196;-52
2022/06/05 02:04:29;;;;;;;4.70;3.70;;;23.90;52.80;25.60;100789.00;;;;4987329;28;20199;-48
2022/06/05 02:07:01;;;;;;;5.87;3.60;;;24.00;52.80;25.60;100785.00;;;;4987518;28;20187;-48
2022/06/05 02:09:51;;;;;;;4.10;3.80;;;23.90;52.80;25.60;100773.00;;;;4987528;28;20603;-48
2022/06/05 02:12:17;;;;;;;4.10;3.80;;;23.90;52.90;25.50;100774.00;;;;4988768;28;20188;-48
2022/06/05 02:14:42;;;;;;;4.87;3.40;;;23.90;52.90;25.50;100763.00;;;;4987316;28;20853;-48
2022/06/05 02:17:09;;;;;;;3.90;3.60;;;23.90;52.90;25.50;100739.00;;;;4988566;28;20255;-47
2022/06/05 02:19:35;;;;;;;3.73;3.43;;;23.80;52.80;25.50;100754.00;;;;4987574;28;20231;-48
2022/06/05 02:22:09;;;;;;;3.70;3.40;;;23.90;53.00;25.50;100754.00;;;;4987186;28;20211;-48
2022/06/05 02:24:34;;;;;;;4.10;3.70;;;23.90;53.00;25.50;100735.00;;;;4987307;28;20605;-48
2022/06/05 02:27:01;;;;;;;3.90;3.60;;;23.80;53.30;25.50;100730.00;;;;4987088;28;20173;-47
2022/06/05 02:29:27;;;;;;;3.87;3.50;;;23.80;53.20;25.40;100728.00;;;;4986774;28;20287;-48
2022/06/05 02:32:15;;;;;;;3.80;3.50;;;23.80;53.30;25.40;100720.00;;;;4988278;28;20193;-49
2022/06/05 02:34:56;;;;;;;4.03;3.73;;;23.80;53.30;25.40;100717.00;;;;4987307;28;20164;-47
2022/06/05 02:37:46;;;;;;;4.00;3.70;;;23.80;53.30;25.40;100701.00;;;;4987594;28;20165;-47
2022/06/05 02:40:15;;;;;;;4.20;3.80;;;23.80;53.30;25.30;100701.00;;;;4988117;28;20770;-48
2022/06/05 02:43:12;;;;;;;4.30;3.90;;;23.80;53.30;25.30;100690.00;;;;4988717;28;20200;-48
2022/06/05 02:46:15;;;;;;;4.10;3.80;;;23.70;53.40;25.30;100681.00;;;;4994271;28;20176;-48
2022/06/05 02:48:42;;;;;;;4.13;3.83;;;23.70;53.70;25.30;100663.00;;;;4993251;28;20601;-46
2022/06/05 02:51:40;;;;;;;3.87;3.60;;;23.70;53.60;25.30;100660.00;;;;4989028;28;20239;-47
2022/06/05 02:54:06;;;;;;;3.90;3.60;;;23.70;53.80;25.20;100654.00;;;;5000964;28;20707;-47
2022/06/05 02:56:32;;;;;;;4.03;3.70;;;23.60;53.80;25.00;100651.00;;;;4992788;28;20169;-47
2022/06/05 02:59:00;;;;;;;4.30;3.60;;;23.60;53.90;25.20;100654.00;;;;4987678;28;20223;-48
2022/06/05 03:04:09;;;;;;;4.23;3.93;;;23.60;53.80;25.10;100650.00;;;;4987984;28;20262;-48
2022/06/05 03:06:40;;;;;;;4.20;3.77;;;23.50;53.80;25.10;100642.00;;;;4987640;28;20729;-48
2022/06/05 03:09:06;;;;;;;3.97;3.67;;;23.50;53.80;25.10;100633.00;;;;4987786;28;20177;-47
2022/06/05 03:11:32;;;;;;;5.40;3.70;;;23.60;53.90;25.10;100636.00;;;;4987708;28;20298;-46
2022/06/05 03:13:58;;;;;;;4.07;3.77;;;23.60;53.80;25.10;100630.00;;;;4988517;28;20222;-47
2022/06/05 03:16:25;;;;;;;3.90;3.50;;;23.60;53.90;25.10;100630.00;;;;4993721;28;20184;-46
2022/06/05 03:18:51;;;;;;;5.00;4.00;;;23.70;53.80;25.10;100629.00;;;;4988489;28;20874;-48
2022/06/05 03:21:17;;;;;;;8.30;3.70;;;23.70;53.80;25.10;100628.00;;;;4986827;28;20291;-48
2022/06/05 03:23:42;;;;;;;5.53;3.80;;;23.80;54.10;25.10;100636.00;;;;4986449;28;20210;-48
2022/06/05 03:26:09;;;;;;;3.90;3.60;;;23.80;53.90;25.10;100642.00;;;;4986078;28;20259;-48
2022/06/05 03:28:35;;;;;;;4.47;4.07;;;23.70;54.40;25.10;100628.00;;;;4985990;28;20191;-47
2022/06/05 03:31:04;;;;;;;4.27;3.90;;;23.60;54.30;25.10;100631.00;;;;4986446;28;20624;-48
2022/06/05 03:33:30;;;;;;;4.30;3.90;;;23.60;54.40;25.10;100636.00;;;;4986332;28;20200;-47
2022/06/05 03:35:56;;;;;;;5.00;3.77;;;23.60;54.50;25.10;100574.00;;;;4985979;28;20606;-47
2022/06/05 03:38:22;;;;;;;4.97;4.00;;;23.50;54.50;25.00;100630.00;;;;4986010;28;20208;-48
2022/06/05 03:40:47;;;;;;;3.97;3.67;;;23.50;54.40;25.00;100624.00;;;;4985356;28;20184;-48
2022/06/05 03:43:13;;;;;;;4.30;4.00;;;23.50;54.40;25.00;100546.00;;;;4985727;28;20195;-47
2022/06/05 03:45:39;;;;;;;3.90;3.60;;;23.50;54.40;25.00;100621.00;;;;4985953;28;20681;-48
2022/06/05 03:48:05;;;;;;;4.07;3.77;;;23.50;54.40;25.00;100621.00;;;;4985430;28;20168;-48
2022/06/05 03:50:31;;;;;;;5.83;3.97;;;23.50;54.40;25.00;100615.00;;;;4986224;28;20180;-49
2022/06/05 03:52:57;;;;;;;5.13;3.70;;;23.50;54.40;25.00;100611.00;;;;4986168;28;20164;-47
2022/06/05 03:55:23;;;;;;;4.13;3.83;;;23.50;54.50;25.00;100612.00;;;;4987702;28;20585;-48
2022/06/05 03:57:50;;;;;;;4.17;3.87;;;23.50;54.50;25.00;100624.00;;;;5004976;28;20211;-47
2022/06/05 04:00:17;;;;;;;3.97;3.60;;;23.50;54.50;25.00;100618.00;;;;5005144;28;20599;-48
2022/06/05 04:02:43;;;;;;;4.67;4.27;;;23.50;54.60;24.90;100619.00;;;;4990509;28;20192;-48
2022/06/05 04:05:10;;;;;;;4.30;3.90;;;23.40;54.70;24.90;100612.00;;;;4986111;28;20211;-48
2022/06/05 04:07:36;;;;;;;4.23;3.87;;;23.40;54.70;24.90;100619.00;;;;4985820;28;20563;-47
2022/06/05 04:10:02;;;;;;;4.00;3.70;;;23.40;54.60;24.90;100612.00;;;;4984656;28;20172;-48
2022/06/05 04:12:28;;;;;;;5.00;3.93;;;23.40;54.80;24.90;100607.00;;;;4986100;28;20218;-48
2022/06/05 04:14:54;;;;;;;4.13;3.73;;;23.50;54.80;24.90;100597.00;;;;4985488;28;20180;-48
2022/06/05 04:17:20;;;;;;;4.50;4.10;;;23.40;54.80;24.90;100596.00;;;;4985706;28;20179;-48
2022/06/05 04:19:45;;;;;;;4.70;4.30;;;23.40;54.90;24.80;100597.00;;;;4986283;28;20643;-47
2022/06/05 04:22:11;;;;;;;4.30;4.00;;;23.30;55.10;24.80;100600.00;;;;4940343;28;1083862;-48
2022/06/05 04:24:37;;;;;;;4.40;4.00;;;23.30;55.10;24.80;100602.00;;;;4969302;28;20208;-47
2022/06/05 04:27:03;;;;;;;4.50;4.03;;;23.30;55.10;24.80;100610.00;;;;4965746;28;20281;-47
2022/06/05 04:29:29;;;;;;;6.10;4.33;;;23.30;55.10;24.80;100615.00;;;;4966536;28;20195;-48
2022/06/05 04:31:55;;;;;;;4.60;4.30;;;23.40;55.20;24.80;100629.00;;;;4966701;28;20197;-48
2022/06/05 04:34:22;;;;;;;4.47;4.17;;;23.30;55.10;24.80;100632.00;;;;4966731;28;20203;-48
2022/06/05 04:36:48;;;;;;;3.93;3.63;;;23.30;55.10;24.80;100643.00;;;;4964684;28;20560;-48
2022/06/05 04:39:14;;;;;;;4.20;3.90;;;23.30;55.10;24.80;100648.00;;;;4967432;28;20185;-47
2022/06/05 04:41:40;;;;;;;4.47;4.17;;;23.40;55.20;24.80;100637.00;;;;4967164;28;20204;-48
2022/06/05 04:44:07;;;;;;;4.40;4.00;;;23.40;55.20;24.80;100656.00;;;;4966434;28;20213;-48
2022/06/05 04:46:33;;;;;;;4.70;4.20;;;23.40;55.20;24.80;100655.00;;;;4966043;28;20173;-46
2022/06/05 04:48:59;;;;;;;4.20;3.90;;;23.40;55.30;24.80;100667.00;;;;4966147;28;20187;-45
2022/06/05 04:51:25;;;;;;;4.57;4.17;;;23.50;55.20;24.80;100671.00;;;;4965793;28;20200;-47
2022/06/05 04:53:52;;;;;;;4.10;3.80;;;23.50;55.20;24.80;100673.00;;;;4966670;28;20169;-48
2022/06/05 04:56:21;;;;;;;4.77;4.30;;;23.40;55.20;24.80;100682.00;;;;4965816;28;20188;-48
2022/06/05 04:58:47;;;;;;;4.40;4.10;;;23.50;55.20;24.80;100687.00;;;;4965224;28;20185;-47
2022/06/05 05:01:19;;;;;;;6.37;4.33;;;23.50;55.20;24.80;100685.00;;;;4966417;28;20297;-46
2022/06/05 05:03:45;;;;;;;4.50;4.10;;;23.50;55.30;24.80;100683.00;;;;4966801;28;20193;-47
2022/06/05 05:06:11;;;;;;;4.60;4.07;;;23.50;55.20;24.80;100691.00;;;;4966217;28;20264;-48
2022/06/05 05:08:37;;;;;;;4.67;4.30;;;23.50;55.50;24.80;100691.00;;;;4965877;28;20239;-48
2022/06/05 05:11:03;;;;;;;4.77;4.37;;;23.50;55.70;24.70;100697.00;;;;4965420;28;20197;-47
2022/06/05 05:13:28;;;;;;;4.63;4.23;;;23.50;55.60;24.70;100692.00;;;;4966581;28;20207;-48
2022/06/05 05:15:55;;;;;;;4.57;4.27;;;23.50;55.50;24.70;100702.00;;;;4966049;28;20212;-47
2022/06/05 05:18:22;;;;;;;4.83;4.50;;;23.50;55.40;24.70;100710.00;;;;4966358;28;20181;-47
2022/06/05 05:20:47;;;;;;;4.53;4.23;;;23.50;55.40;24.70;100700.00;;;;4964980;28;20191;-47
2022/06/05 05:23:13;;;;;;;4.77;4.37;;;23.50;55.40;24.70;100708.00;;;;4969102;28;21008;-47
2022/06/05 05:25:39;;;;;;;5.30;4.30;;;23.40;55.80;24.70;100711.00;;;;4970019;28;20181;-48
2022/06/05 05:28:08;;;;;;;4.73;4.07;;;23.40;55.70;24.70;100698.00;;;;4969271;28;20201;-47
2022/06/05 05:30:34;;;;;;;5.10;4.60;;;23.40;55.70;24.70;100692.00;;;;4969512;28;20266;-47
2022/06/05 05:33:00;;;;;;;4.70;4.30;;;23.50;55.90;24.70;100698.00;;;;4969687;28;20188;-48
2022/06/05 05:35:26;;;;;;;4.73;4.33;;;23.50;55.80;24.70;100691.00;;;;4969488;28;20176;-48
2022/06/05 05:37:51;;;;;;;4.90;4.50;;;23.50;55.90;24.70;100688.00;;;;4967734;28;20177;-47
2022/06/05 05:43:01;;;;;;;4.63;4.23;;;23.40;56.00;24.70;100683.00;;;;4969243;28;20187;-47
2022/06/05 05:45:27;;;;;;;4.50;4.20;;;23.40;56.00;24.70;100684.00;;;;4969482;28;20168;-47
2022/06/05 05:47:53;;;;;;;4.77;4.40;;;23.40;56.00;24.70;100678.00;;;;4968675;28;20236;-48
2022/06/05 05:50:19;;;;;;;4.50;4.20;;;23.40;56.00;24.70;100671.00;;;;4968851;28;20184;-49
2022/06/05 05:52:45;;;;;;;4.57;4.17;;;23.40;56.10;24.70;100674.00;;;;4969365;28;20200;-48
2022/06/05 05:55:16;;;;;;;5.23;4.73;;;23.40;56.10;24.70;100677.00;;;;4969552;28;20256;-48
2022/06/05 05:57:42;;;;;;;5.10;4.47;;;23.40;56.20;24.70;100661.00;;;;4975155;28;20184;-48
2022/06/05 06:00:10;;;;;;;5.73;4.83;;;23.40;56.20;24.60;100668.00;;;;4968086;28;20181;-47
2022/06/05 06:02:36;;;;;;;4.63;4.30;;;23.40;56.20;24.60;100659.00;;;;4968074;28;20744;-48
2022/06/05 06:05:02;;;;;;;4.70;4.33;;;23.40;56.30;24.60;100656.00;;;;4968534;28;20200;-47
2022/06/05 06:07:28;;;;;;;4.70;4.30;;;23.40;56.10;24.60;100657.00;;;;4968523;28;20173;-47
2022/06/05 06:09:54;;;;;;;4.80;4.40;;;23.40;56.20;24.60;100644.00;;;;4968961;28;20256;-48
2022/06/05 06:12:20;;;;;;;5.00;4.50;;;23.40;56.20;24.60;100639.00;;;;4968856;28;20672;-48
2022/06/05 06:14:46;;;;;;;4.90;4.40;;;23.40;56.40;24.60;100624.00;;;;4968492;28;20185;-47
2022/06/05 06:17:11;;;;;;;4.80;4.47;;;23.40;56.60;24.60;100624.00;;;;4968398;28;20173;-48
2022/06/05 06:19:37;;;;;;;4.90;4.60;;;23.40;56.70;24.60;100618.00;;;;4968835;28;20181;-50
2022/06/05 06:22:04;;;;;;;4.57;4.17;;;23.30;56.80;24.60;100609.00;;;;4968587;28;20218;-47
2022/06/05 06:24:29;;;;;;;4.90;4.50;;;23.30;56.90;24.60;100615.00;;;;4967656;28;20834;-48
2022/06/05 06:26:55;;;;;;;4.97;4.60;;;23.30;56.90;24.60;100613.00;;;;4968625;28;20208;-48
2022/06/05 06:29:21;;;;;;;4.87;4.50;;;23.30;57.00;24.60;100606.00;;;;4968470;28;20169;-48
2022/06/05 06:31:47;;;;;;;4.83;4.43;;;23.30;56.90;24.60;100601.00;;;;4968846;28;20227;-47
2022/06/05 06:34:12;;;;;;;4.33;3.93;;;23.40;56.80;24.60;100587.00;;;;4968337;28;20173;-48
2022/06/05 06:36:38;;;;;;;4.70;4.30;;;23.30;56.70;24.60;100589.00;;;;4968726;28;20896;-48
2022/06/05 06:39:04;;;;;;;4.80;4.50;;;23.40;56.90;24.60;100588.00;;;;4968327;28;20196;-47
2022/06/05 06:41:30;;;;;;;4.60;4.10;;;23.30;56.90;24.60;100581.00;;;;4969074;28;20208;-47
2022/06/05 06:43:56;;;;;;;4.53;4.13;;;23.30;56.90;24.60;100571.00;;;;4968536;28;20777;-47
2022/06/05 06:46:21;;;;;;;5.37;4.70;;;23.30;56.90;24.50;100559.00;;;;4968000;28;20204;-47
2022/06/05 06:48:47;;;;;;;4.70;4.30;;;23.40;57.00;24.50;100563.00;;;;4968027;28;20177;-47
2022/06/05 06:51:14;;;;;;;5.40;4.90;;;23.40;56.90;24.50;100559.00;;;;4967063;28;20204;-47
2022/06/05 06:53:40;;;;;;;4.80;4.40;;;23.30;57.10;24.50;100550.00;;;;4970711;28;20205;-47
2022/06/05 06:56:12;;;;;;;5.07;4.57;;;23.30;57.20;24.50;100543.00;;;;4969136;28;20697;-47
2022/06/05 06:58:42;;;;;;;4.83;4.43;;;23.40;57.30;24.50;100537.00;;;;4969685;28;20217;-47
2022/06/05 07:01:08;;;;;;;4.90;4.50;;;23.30;57.30;24.50;100539.00;;;;4968390;28;20204;-48
2022/06/05 07:03:34;;;;;;;4.53;4.23;;;23.30;57.30;24.50;100535.00;;;;4969617;28;20201;-49
2022/06/05 07:06:01;;;;;;;5.00;4.60;;;23.30;57.50;24.50;100537.00;;;;4969919;28;20181;-47
2022/06/05 07:08:27;;;;;;;5.13;4.77;;;23.20;57.50;24.50;100529.00;;;;4968876;28;20208;-48
2022/06/05 07:10:53;;;;;;;4.60;4.20;;;23.20;57.60;24.50;100525.00;;;;4968525;28;20650;-48
2022/06/05 07:13:19;;;;;;;4.80;4.40;;;23.20;58.10;24.50;100518.00;;;;4967888;28;20264;-47
2022/06/05 07:15:45;;;;;;;4.60;4.20;;;23.20;57.50;24.50;100507.00;;;;4968204;28;20184;-48
2022/06/05 07:18:10;;;;;;;5.20;4.80;;;23.20;57.60;24.50;100520.00;;;;4966419;28;20793;-47
2022/06/05 07:20:39;;;;;;;4.87;4.47;;;23.20;57.60;24.50;100511.00;;;;4966953;28;20160;-47
2022/06/05 07:23:05;;;;;;;4.63;4.33;;;23.20;57.70;24.40;100501.00;;;;4966127;28;20583;-47
2022/06/05 07:25:31;;;;;;;5.10;4.70;;;23.20;57.80;24.40;100504.00;;;;4986473;28;20197;-48
2022/06/05 07:27:57;;;;;;;5.00;4.60;;;23.20;57.90;24.40;100498.00;;;;4988358;28;20171;-48
2022/06/05 07:30:23;;;;;;;5.07;4.77;;;23.20;57.90;24.40;100507.00;;;;4976437;28;20169;-48
2022/06/05 07:32:50;;;;;;;5.00;4.60;;;23.20;57.80;24.40;100507.00;;;;4910582;28;20199;-47
2022/06/05 07:35:16;;;;;;;4.80;4.50;;;23.20;58.00;24.40;100512.00;;;;4986764;28;20829;-47
2022/06/05 07:37:42;;;;;;;4.90;4.50;;;23.20;58.00;24.40;100512.00;;;;4986044;28;20267;-48
2022/06/05 07:40:08;;;;;;;5.03;4.60;;;23.20;58.10;24.40;100518.00;;;;4986572;28;20172;-47
2022/06/05 07:42:38;;;;;;;4.40;4.10;;;23.20;58.00;24.40;100521.00;;;;4986304;28;20291;-48
2022/06/05 07:45:05;;;;;;;5.33;4.93;;;23.30;58.00;24.40;100519.00;;;;4986069;28;20196;-47
2022/06/05 07:47:31;;;;;;;5.10;4.60;;;23.20;57.90;24.40;100527.00;;;;4989841;28;20168;-48
2022/06/05 07:49:57;;;;;;;5.20;4.70;;;23.30;58.00;24.40;100534.00;;;;4986860;28;20176;-48
2022/06/05 07:55:08;;;;;;;5.00;4.60;;;23.30;58.10;24.40;100533.00;;;;4986379;28;20700;-47
2022/06/05 07:57:34;;;;;;;4.60;4.30;;;23.20;58.00;24.40;100530.00;;;;4986455;28;20268;-47
2022/06/05 07:59:59;;;;;;;4.63;4.33;;;23.30;58.00;24.40;100527.00;;;;4986587;28;20352;-49
2022/06/05 08:02:27;;;;;;;5.03;4.67;;;23.30;58.20;24.40;100525.00;;;;4986100;28;21017;-47
2022/06/05 08:04:53;;;;;;;5.13;4.73;;;23.30;58.20;24.40;100527.00;;;;4985442;28;20238;-49
2022/06/05 08:07:24;;;;;;;5.20;4.80;;;23.30;58.90;24.40;100522.00;;;;4986090;28;20324;-48
2022/06/05 08:09:52;;;;;;;5.23;4.70;;;23.30;58.30;24.40;100519.00;;;;4986357;28;20227;-48
2022/06/05 08:12:19;;;;;;;5.03;4.63;;;23.30;58.60;24.40;100531.00;;;;4986609;28;20197;-47
2022/06/05 08:14:46;;;;;;;4.83;4.40;;;23.40;58.20;24.50;100526.00;;;;4983880;28;20184;-48
2022/06/05 08:17:13;;;;;;;5.27;4.80;;;23.40;58.00;24.50;100527.00;;;;4986981;28;20188;-48
2022/06/05 08:19:40;;;;;;;5.27;4.87;;;23.40;58.50;24.40;100527.00;;;;4989190;28;20172;-47
2022/06/05 08:22:08;;;;;;;5.20;4.80;;;23.40;58.30;24.40;100533.00;;;;4989045;28;20204;-47
2022/06/05 08:24:33;;;;;;;5.47;5.07;;;23.30;58.50;24.50;100532.00;;;;4989235;28;20287;-48
2022/06/05 08:26:59;;;;;;;5.50;5.00;;;23.40;59.00;24.50;100542.00;;;;4988844;28;20268;-47
2022/06/05 08:29:25;;;;;;;5.13;4.63;;;23.40;58.90;24.50;100543.00;;;;4988733;28;20200;-48
2022/06/05 08:31:52;;;;;;;7.30;4.90;;;23.40;58.80;24.50;100541.00;;;;4903309;28;20191;-47
2022/06/05 08:34:19;;;;;;;5.00;4.70;;;23.50;58.60;24.50;100534.00;;;;4989037;28;20738;-48
2022/06/05 08:36:45;;;;;;;4.83;4.43;;;23.50;58.40;24.50;100535.00;;;;4989071;28;20173;-46
2022/06/05 08:42:20;;;;;;;4.90;4.60;;;23.50;58.00;24.60;100539.00;;;;4988692;28;20202;-47
2022/06/05 08:44:58;;;;;;;5.47;4.97;;;23.50;57.90;24.60;100544.00;;;;4988980;28;20851;-48
2022/06/05 08:47:35;;;;;;;4.70;4.40;;;23.60;57.80;24.60;100538.00;;;;4987386;28;20215;-49
2022/06/05 08:50:26;;;;;;;4.60;4.27;;;23.50;57.70;24.60;100545.00;;;;4987469;28;20192;-47
2022/06/05 08:52:59;;;;;;;4.57;4.27;;;23.60;57.70;24.60;100548.00;;;;4987993;28;20199;-49
2022/06/05 08:55:42;;;;;;;8.27;4.80;;;23.50;57.40;24.60;100542.00;;;;4986919;28;20275;-48
2022/06/05 08:58:43;;;;;;;5.33;4.50;;;23.60;58.70;24.60;100545.00;;;;4975626;28;20254;-48
2022/06/05 09:01:37;;;;;;;5.00;4.60;;;23.60;58.20;24.60;100537.00;;;;4990977;28;20200;-46
2022/06/05 09:04:35;;;;;;;4.77;4.40;;;23.60;58.30;24.60;100540.00;;;;4975487;28;20201;-48
2022/06/05 09:07:04;;;;;;;5.10;4.70;;;23.60;58.20;24.60;100545.00;;;;4987915;28;20180;-48
2022/06/05 09:10:02;;;;;;;4.43;4.13;;;23.60;58.20;24.70;100544.00;;;;4961256;28;20545;-48
2022/06/05 09:12:45;;;;;;;4.63;4.23;;;23.70;58.20;24.70;100543.00;;;;4991309;28;20238;-46
2022/06/05 09:15:51;;;;;;;4.90;4.60;;;23.60;58.00;24.70;100545.00;;;;4991188;28;20172;-46
2022/06/05 09:18:21;;;;;;;4.60;4.30;;;23.70;58.10;24.70;100546.00;;;;4981457;28;20189;-47
2022/06/05 09:20:59;;;;;;;8.93;4.70;;;23.60;58.10;24.70;100540.00;;;;4971623;28;20185;-46
2022/06/05 09:23:40;;;;;;;4.77;4.30;;;23.70;58.30;24.70;100548.00;;;;4973158;28;20189;-47
2022/06/05 09:26:32;;;;;;;4.60;4.20;;;23.70;58.20;24.70;100550.00;;;;4982402;28;20172;-48
2022/06/05 09:29:10;;;;;;;4.93;4.50;;;23.70;58.30;24.70;100542.00;;;;4992600;28;20263;-47
2022/06/05 09:32:26;;;;;;;4.60;4.30;;;23.70;58.40;24.70;100553.00;;;;4919963;28;20298;-46
2022/06/05 09:35:11;;;;;;;4.80;4.40;;;23.70;58.30;24.70;100565.00;;;;4992175;28;20571;-46
2022/06/05 09:37:48;;;;;;;4.83;4.43;;;23.70;58.40;24.70;100565.00;;;;4992166;28;20641;-46
2022/06/05 09:40:16;;;;;;;4.87;4.37;;;23.70;58.40;24.70;100555.00;;;;4990856;28;20161;-46
2022/06/05 09:43:16;;;;;;;4.60;4.30;;;23.70;58.30;24.80;100559.00;;;;4992080;28;20212;-48
2022/06/05 09:46:17;;;;;;;4.70;4.30;;;23.70;58.40;24.80;100548.00;;;;4991952;28;20188;-46
2022/06/05 09:49:13;;;;;;;5.00;4.57;;;23.70;58.50;24.80;100554.00;;;;4976531;28;20183;-48
2022/06/05 09:51:41;;;;;;;5.00;4.53;;;23.80;58.80;24.80;100552.00;;;;4991018;28;20281;-48
2022/06/05 09:54:30;;;;;;;4.60;4.20;;;23.80;58.80;24.80;100556.00;;;;4992016;28;20224;-46
2022/06/05 10:00:36;;;;;;;4.43;4.13;;;23.80;58.50;24.80;100558.00;;;;4990222;28;20183;-48
2022/06/05 10:03:05;;;;;;;4.50;4.20;;;23.80;58.70;24.80;100562.00;;;;4991662;28;20168;-47
2022/06/05 10:05:36;;;;;;;5.03;4.30;;;23.80;58.60;24.90;100559.00;;;;4990088;28;20180;-47
2022/06/05 10:08:21;;;;;;;4.70;4.40;;;23.80;58.80;24.90;100544.00;;;;4974073;28;20192;-47
2022/06/05 10:10:48;;;;;;;4.73;4.33;;;23.80;58.70;24.90;100554.00;;;;4975156;28;20157;-47
2022/06/05 10:13:39;;;;;;;4.80;4.40;;;23.80;58.90;24.90;100550.00;;;;4990346;28;20311;-45
2022/06/05 10:16:11;;;;;;;4.43;4.13;;;23.80;58.90;24.90;100542.00;;;;4976195;28;20199;-47
2022/06/05 10:18:57;;;;;;;4.77;4.33;;;23.80;58.70;24.90;100532.00;;;;4971812;28;20795;-46
2022/06/05 10:21:24;;;;;;;4.97;4.57;;;23.80;58.80;24.90;100539.00;;;;4975698;28;20263;-47
2022/06/05 10:24:37;;;;;;;4.90;4.60;;;23.90;59.30;25.00;100536.00;;;;4969599;28;20369;-47
2022/06/05 10:27:04;;;;;;;4.50;4.20;;;23.90;59.20;25.00;100543.00;;;;4989367;28;20196;-45
2022/06/05 10:29:38;;;;;;;4.67;4.33;;;23.80;59.00;25.00;100537.00;;;;4974064;28;20664;-46
2022/06/05 10:32:18;;;;;;;4.83;4.53;;;23.80;59.10;25.00;100522.00;;;;4907775;28;20580;-48
2022/06/05 10:34:54;;;;;;;5.00;4.70;;;23.90;59.60;25.00;100519.00;;;;4961251;28;20164;-48
2022/06/05 10:37:44;;;;;;;5.80;4.53;;;23.80;59.60;25.00;100527.00;;;;4973952;28;20173;-48
2022/06/05 10:40:24;;;;;;;4.83;4.53;;;23.80;59.30;25.00;100529.00;;;;4975154;28;20168;-46
2022/06/05 10:43:01;;;;;;;5.17;4.77;;;23.80;59.40;25.00;100524.00;;;;4990623;28;20264;-46
2022/06/05 10:45:54;;;;;;;4.77;4.43;;;23.80;59.70;25.00;100529.00;;;;4990075;28;20168;-46
2022/06/05 10:48:40;;;;;;;5.03;4.47;;;23.80;59.80;25.00;100515.00;;;;4973876;28;20167;-46
2022/06/05 10:51:31;;;;;;;5.60;4.80;;;23.80;59.60;25.00;100509.00;;;;4990599;28;20267;-46
2022/06/05 10:54:14;;;;;;;4.90;4.60;;;23.80;59.80;25.00;100510.00;;;;4980026;28;20194;-47
2022/06/05 10:56:55;;;;;;;4.90;4.50;;;23.80;59.80;25.00;100499.00;;;;4985095;28;20200;-46
2022/06/05 10:59:48;;;;;;;4.57;4.27;;;23.80;59.80;25.00;100492.00;;;;4972296;28;20167;-46
2022/06/05 11:02:28;;;;;;;4.93;4.53;;;23.80;59.90;25.00;100482.00;;;;4967483;28;20274;-46
2022/06/05 11:05:41;;;;;;;5.23;4.83;;;23.80;60.00;25.00;100478.00;;;;4980025;28;20195;-49
2022/06/05 11:08:28;;;;;;;4.93;4.47;;;23.80;60.20;25.00;100486.00;;;;4980559;28;20173;-47
2022/06/05 11:14:18;;;;;;;5.07;4.67;;;23.80;60.20;25.00;100457.00;;;;4980607;28;20236;-46
2022/06/05 11:17:03;;;;;;;5.13;4.73;;;23.80;60.30;25.00;100470.00;;;;4986520;28;20220;-47
2022/06/05 11:19:41;;;;;;;4.77;4.40;;;23.80;60.60;25.00;100449.00;;;;4949297;28;20169;-48
2022/06/05 11:22:11;;;;;;;4.87;4.57;;;23.90;60.20;25.00;100450.00;;;;4984774;28;20206;-46
2022/06/05 11:24:49;;;;;;;4.70;4.40;;;23.80;59.80;25.00;100436.00;;;;4965217;28;20185;-45
2022/06/05 11:27:34;;;;;;;4.90;4.33;;;23.80;59.50;25.00;100419.00;;;;4982855;28;20200;-48
2022/06/05 11:30:52;;;;;;;4.70;4.40;;;23.90;59.60;25.00;100427.00;;;;4966222;28;20169;-46